Time;durP1;ratioP1;P1;durP2;ratioP2;P2;SDS_P1;SDS_P2;PMS_P1;PMS_P2;Temp;Humidity;BMP_temperature;BMP_pressure;BME280_temperature;BME280_humidity;BME280_pressure;Samples;Min_cycle;Max_cycle;Signal;HPM_P1;HPM_P2
2023/10/05 00:02:08;;;;;;;10.00;4.47;;;18.60;99.90;;;18.98;70.42;102141.38;5055549;28;20045;-82
2023/10/05 00:04:41;;;;;;;7.85;4.30;;;18.60;99.90;;;18.93;70.45;102144.16;5054040;28;20143;-82
2023/10/05 00:07:19;;;;;;;12.70;4.30;;;18.60;99.90;;;18.97;70.57;102147.66;5055552;28;20047;-82
2023/10/05 00:09:48;;;;;;;11.07;4.50;;;18.60;99.90;;;18.98;70.92;102141.38;5056035;28;20056;-81
2023/10/05 00:12:20;;;;;;;17.50;5.25;;;18.60;99.90;;;18.92;71.23;102147.75;5055406;28;20048;-81
2023/10/05 00:15:02;;;;;;;11.63;4.38;;;18.50;99.90;;;18.85;71.44;102135.34;5055494;28;20044;-82
2023/10/05 00:17:32;;;;;;;12.43;4.68;;;18.50;99.90;;;18.97;71.11;102144.97;5055604;28;20051;-81
2023/10/05 00:20:06;;;;;;;14.98;5.55;;;18.60;99.90;;;18.84;70.92;102152.38;5055550;28;20511;-82
2023/10/05 00:22:36;;;;;;;16.33;5.28;;;18.50;99.90;;;18.83;70.88;102145.22;5055142;28;20056;-82
2023/10/05 00:25:06;;;;;;;9.55;4.75;;;18.50;99.90;;;18.66;71.46;102147.31;5055175;28;20052;-82
2023/10/05 00:27:35;;;;;;;16.02;4.82;;;18.40;99.90;;;18.82;71.34;102140.78;5055319;28;20037;-81
2023/10/05 00:30:06;;;;;;;14.27;5.57;;;18.40;99.90;;;18.67;71.51;102148.22;5053994;28;20044;-81
2023/10/05 00:32:35;;;;;;;16.02;5.85;;;18.30;99.90;;;18.71;70.70;102144.56;5055234;28;20040;-81
2023/10/05 00:35:16;;;;;;;14.38;5.75;;;18.40;99.90;;;18.67;70.80;102142.84;5055372;28;20041;-81
2023/10/05 00:37:48;;;;;;;12.95;4.53;;;18.30;99.90;;;18.55;71.10;102143.03;5055046;28;20052;-82
2023/10/05 00:40:27;;;;;;;14.02;5.03;;;18.20;99.90;;;18.60;71.68;102151.91;5053831;28;20045;-82
2023/10/05 00:43:04;;;;;;;16.08;4.80;;;18.20;99.90;;;18.64;71.14;102137.56;5054572;28;20044;-81
2023/10/05 00:45:33;;;;;;;16.33;4.85;;;18.40;99.90;;;18.67;71.26;102148.22;5054222;28;20056;-81
2023/10/05 00:48:10;;;;;;;12.35;5.47;;;18.40;99.90;;;18.69;71.15;102149.97;5054618;28;20475;-82
2023/10/05 00:50:39;;;;;;;18.67;5.53;;;18.30;99.90;;;18.73;70.81;102149.00;5038187;28;20052;-81
2023/10/05 00:53:10;;;;;;;16.08;4.85;;;18.40;99.90;;;18.83;70.30;102152.41;5054619;28;20692;-81
2023/10/05 00:55:43;;;;;;;15.73;5.30;;;18.40;99.90;;;18.84;70.08;102147.00;5054558;28;20045;-81
2023/10/05 00:58:15;;;;;;;11.32;4.75;;;18.40;99.90;;;18.87;69.98;102152.28;5054792;28;20041;-81
2023/10/05 01:00:50;;;;;;;14.88;4.80;;;18.50;99.90;;;18.77;69.88;102144.47;5054499;28;20060;-79
2023/10/05 01:03:33;;;;;;;12.93;4.78;;;18.40;99.90;;;18.71;69.96;102145.47;5054365;28;20049;-81
2023/10/05 01:06:12;;;;;;;12.43;5.20;;;18.40;99.90;;;18.72;69.57;102139.16;5051074;28;20172;-82
2023/10/05 01:08:49;;;;;;;13.50;5.00;;;18.40;99.90;;;18.76;69.64;102150.72;5054738;28;20076;-81
2023/10/05 01:11:30;;;;;;;10.35;4.75;;;18.40;99.90;;;18.76;69.70;102151.59;5054845;28;20055;-81
2023/10/05 01:14:00;;;;;;;17.63;5.15;;;18.40;99.90;;;18.74;69.72;102140.03;5053513;28;20056;-81
2023/10/05 01:16:32;;;;;;;12.93;5.20;;;18.40;99.90;;;18.71;70.14;102141.88;5054221;28;20045;-81
2023/10/05 01:19:02;;;;;;;13.27;4.50;;;18.40;99.90;;;18.75;69.65;102131.09;5054440;28;20044;-81
2023/10/05 01:21:31;;;;;;;16.92;4.97;;;18.40;99.90;;;18.61;68.90;102122.41;5054199;28;20045;-81
2023/10/05 01:24:02;;;;;;;11.73;5.13;;;18.30;99.90;;;18.68;68.35;102125.84;5053421;28;20063;-81
2023/10/05 01:26:34;;;;;;;14.95;5.10;;;18.30;99.90;;;18.66;67.80;102115.16;5054597;28;20053;-81
2023/10/05 01:29:03;;;;;;;16.73;5.07;;;18.40;99.90;;;18.71;67.18;102126.69;5054106;28;20607;-81
2023/10/05 01:31:32;;;;;;;15.05;4.75;;;18.40;99.90;;;18.67;67.32;102124.09;5054057;28;20052;-81
2023/10/05 01:34:02;;;;;;;11.95;4.65;;;18.40;99.90;;;18.75;66.98;102127.50;5054053;28;20055;-81
2023/10/05 01:36:31;;;;;;;12.45;4.40;;;18.40;99.90;;;18.68;67.02;102129.41;5052865;28;20383;-80
2023/10/05 01:39:08;;;;;;;11.50;5.20;;;18.40;99.90;;;18.78;66.55;102135.50;5053031;28;20072;-81
2023/10/05 01:41:37;;;;;;;12.25;4.90;;;18.40;99.90;;;18.75;66.14;102127.50;5053166;28;20053;-81
2023/10/05 01:44:08;;;;;;;12.90;4.78;;;18.40;99.90;;;18.71;66.42;102129.38;5053235;28;20077;-80
2023/10/05 01:46:38;;;;;;;12.40;4.57;;;18.40;99.90;;;18.77;66.25;102140.00;5054376;28;20445;-81
2023/10/05 01:49:08;;;;;;;11.82;4.20;;;18.40;99.90;;;18.65;67.19;102133.94;5066150;28;20104;-81
2023/10/05 01:51:36;;;;;;;11.18;4.45;;;18.40;99.90;;;18.64;67.15;102138.41;5053996;28;20128;-80
2023/10/05 01:54:11;;;;;;;13.85;4.85;;;18.30;99.90;;;18.72;67.60;102133.81;5053848;28;20045;-81
2023/10/05 01:56:44;;;;;;;13.38;4.93;;;18.40;99.90;;;18.71;67.85;102129.38;5054226;28;20140;-81
2023/10/05 01:59:13;;;;;;;10.82;4.93;;;18.30;99.90;;;18.79;67.88;102132.78;5052977;28;20053;-81
2023/10/05 02:01:41;;;;;;;10.88;5.15;;;18.40;99.90;;;18.82;68.18;102127.38;5053054;28;20072;-80
2023/10/05 02:04:11;;;;;;;15.98;5.05;;;18.50;99.90;;;18.78;68.70;102124.75;5052678;28;20098;-81
2023/10/05 02:06:40;;;;;;;15.13;5.10;;;18.50;99.90;;;18.84;69.19;102132.69;5013235;28;20506;-81
2023/10/05 02:09:10;;;;;;;14.13;4.82;;;18.50;99.90;;;18.89;69.24;102129.03;5012779;28;20088;-81
2023/10/05 02:11:40;;;;;;;16.33;5.03;;;18.50;99.90;;;18.82;69.89;102139.88;5013068;28;20476;-81
2023/10/05 02:14:12;;;;;;;14.88;5.20;;;18.50;99.90;;;18.80;70.17;102133.66;5009870;28;20510;-81
2023/10/05 02:16:41;;;;;;;15.95;5.47;;;18.40;99.90;;;18.75;70.31;102135.56;5012932;28;20052;-81
2023/10/05 02:19:10;;;;;;;18.73;5.55;;;18.40;99.90;;;18.68;70.54;102125.84;5012826;28;20491;-81
2023/10/05 02:21:39;;;;;;;15.15;4.88;;;18.30;99.90;;;18.85;70.22;102132.66;5014107;28;20050;-81
2023/10/05 02:24:15;;;;;;;14.90;5.43;;;18.40;99.90;;;18.96;69.91;102126.22;5014173;28;20058;-81
2023/10/05 02:27:09;;;;;;;11.60;5.05;;;18.50;99.90;;;18.72;70.07;102101.63;5013005;28;20103;-81
2023/10/05 02:29:40;;;;;;;16.00;4.80;;;18.50;99.90;;;18.79;70.09;102111.31;5013959;28;20042;-81
2023/10/05 02:32:11;;;;;;;16.75;5.47;;;18.50;99.90;;;18.75;70.33;102115.00;5013531;28;20058;-80
2023/10/05 02:34:42;;;;;;;14.80;5.22;;;18.40;99.90;;;18.89;70.14;102123.66;5013681;28;20056;-81
2023/10/05 02:37:12;;;;;;;12.77;4.50;;;18.50;99.90;;;18.75;70.08;102116.78;5013136;28;20057;-81
2023/10/05 02:39:42;;;;;;;18.13;5.43;;;18.40;99.90;;;18.57;70.32;102117.09;5013215;28;20124;-81
2023/10/05 02:42:13;;;;;;;14.75;4.82;;;18.30;99.90;;;18.66;70.24;102114.28;5013138;28;20046;-81
2023/10/05 02:44:44;;;;;;;11.98;4.53;;;18.30;99.90;;;18.53;70.62;102112.72;5013083;28;20046;-82
2023/10/05 02:47:15;;;;;;;12.48;4.88;;;18.20;99.90;;;18.66;69.86;102114.28;5012085;28;20054;-81
2023/10/05 02:49:44;;;;;;;12.73;5.20;;;18.30;99.90;;;18.63;69.21;102108.97;5012027;28;20046;-81
2023/10/05 02:52:15;;;;;;;11.00;4.85;;;18.20;99.90;;;18.62;67.76;102091.13;5012534;28;20041;-81
2023/10/05 02:54:47;;;;;;;;;;;18.30;99.90;;;18.54;67.15;102112.66;4998261;28;20053;-80
2023/10/05 02:57:17;;;;;;;12.15;4.80;;;18.30;99.90;;;18.53;67.41;102113.59;5012063;28;20374;-81
2023/10/05 02:59:46;;;;;;;10.52;4.45;;;18.20;99.90;;;18.54;67.69;102112.66;5012334;28;20056;-81
2023/10/05 03:02:16;;;;;;;14.50;4.70;;;18.20;99.90;;;18.46;68.07;102106.59;5025698;28;20054;-80
2023/10/05 03:04:46;;;;;;;11.65;5.00;;;18.20;99.90;;;18.45;68.48;102112.84;5020587;28;20068;-80
2023/10/05 03:07:23;;;;;;;13.65;5.50;;;18.10;99.90;;;18.41;68.87;102111.09;5065221;28;20050;-80
2023/10/05 03:09:59;;;;;;;13.73;4.70;;;18.10;99.90;;;18.41;68.89;102105.72;5063543;28;20143;-80
2023/10/05 03:12:32;;;;;;;16.35;5.50;;;18.10;99.90;;;18.51;68.93;102115.41;5036295;28;20040;-81
2023/10/05 03:15:08;;;;;;;13.45;5.45;;;18.20;99.90;;;18.40;69.30;102106.66;5051740;28;20048;-81
2023/10/05 03:17:40;;;;;;;12.25;5.43;;;18.10;99.90;;;18.47;69.50;102105.66;5067562;28;20486;-80
2023/10/05 03:20:15;;;;;;;13.75;5.85;;;18.20;99.90;;;18.48;69.73;102099.41;5051678;28;20433;-81
2023/10/05 03:22:46;;;;;;;16.60;5.05;;;18.20;99.90;;;18.54;69.95;102114.50;5052916;28;20045;-81
2023/10/05 03:25:16;;;;;;;11.52;4.63;;;18.20;99.90;;;18.47;70.28;102118.16;5051594;28;20049;-81
2023/10/05 03:27:46;;;;;;;12.15;5.30;;;18.20;99.90;;;18.26;71.12;102113.13;5051280;28;20044;-81
2023/10/05 03:30:15;;;;;;;12.50;5.22;;;18.00;99.90;;;18.24;71.41;102110.47;5051572;28;20052;-81
2023/10/05 03:32:48;;;;;;;18.23;5.32;;;18.00;99.90;;;18.28;71.86;102101.50;5068319;28;20413;-79
2023/10/05 03:35:22;;;;;;;11.10;4.55;;;18.00;99.90;;;18.32;72.26;102100.53;5051435;28;20498;-81
2023/10/05 03:37:52;;;;;;;15.00;5.43;;;18.00;99.90;;;18.18;73.07;102098.97;5051406;28;20080;-80
2023/10/05 03:40:25;;;;;;;15.55;5.18;;;17.90;99.90;;;18.34;73.13;102103.19;5052039;28;20145;-79
2023/10/05 03:42:58;;;;;;;16.42;6.00;;;17.90;99.90;;;18.34;73.13;102101.38;5050757;28;20506;-81
2023/10/05 03:45:32;;;;;;;13.63;5.07;;;18.00;99.90;;;18.42;72.94;102104.88;5050843;28;20053;-80
2023/10/05 03:48:01;;;;;;;15.32;5.50;;;18.00;99.90;;;18.27;73.27;102088.13;5050815;28;20049;-80
2023/10/05 03:50:31;;;;;;;11.23;4.75;;;18.00;99.90;;;18.28;73.10;102105.94;5050262;28;20136;-81
2023/10/05 03:53:00;;;;;;;13.82;5.20;;;18.00;99.90;;;18.27;72.90;102107.78;5050710;28;20052;-81
2023/10/05 03:55:32;;;;;;;10.10;5.18;;;17.90;99.90;;;18.28;72.49;102106.84;5050923;28;20045;-81
2023/10/05 03:58:02;;;;;;;12.10;4.90;;;17.90;99.90;;;18.30;71.76;102105.03;5050748;28;20041;-81
2023/10/05 04:00:35;;;;;;;13.03;5.57;;;18.00;99.90;;;18.30;71.74;102104.13;5050731;28;20498;-81
2023/10/05 04:03:07;;;;;;;15.20;4.82;;;17.90;99.90;;;18.28;70.92;102101.50;5050925;28;20140;-81
2023/10/05 04:05:40;;;;;;;15.90;4.85;;;18.00;99.90;;;18.29;70.81;102105.06;5050305;28;20490;-81
2023/10/05 04:08:12;;;;;;;12.35;4.68;;;17.90;99.90;;;18.40;70.97;102109.34;5052401;28;20049;-80
2023/10/05 04:10:49;;;;;;;12.35;4.70;;;18.00;99.90;;;18.48;70.73;102109.22;5052145;28;20474;-81
2023/10/05 04:13:20;;;;;;;15.82;5.03;;;18.10;99.90;;;18.42;70.96;102104.88;5052130;28;20049;-81
2023/10/05 04:15:51;;;;;;;13.57;4.90;;;18.10;99.90;;;18.37;70.88;102095.97;5052058;28;20052;-81
2023/10/05 04:18:21;;;;;;;14.10;5.05;;;18.00;99.90;;;18.21;71.44;102099.84;5052147;28;20479;-81
2023/10/05 04:20:50;;;;;;;10.57;4.45;;;17.90;99.90;;;18.29;71.13;102095.19;5052048;28;20045;-80
2023/10/05 04:23:27;;;;;;;11.73;4.55;;;17.90;99.90;;;18.08;71.46;102068.78;5051984;28;20095;-81
2023/10/05 04:25:57;;;;;;;14.80;5.38;;;17.90;99.90;;;18.38;71.09;102103.13;5051608;28;20041;-81
2023/10/05 04:28:36;;;;;;;12.20;4.68;;;18.00;99.90;;;18.37;71.27;102108.50;5052045;28;20057;-81
2023/10/05 04:31:10;;;;;;;8.68;4.50;;;18.00;99.90;;;18.20;72.01;102103.41;5051931;28;20076;-81
2023/10/05 04:33:42;;;;;;;9.65;4.45;;;17.80;99.90;;;18.18;72.84;102104.31;5052016;28;20078;-81
2023/10/05 04:36:11;;;;;;;16.73;4.55;;;17.80;99.90;;;18.33;72.41;102106.78;5052160;28;20045;-81
2023/10/05 04:38:39;;;;;;;11.98;4.80;;;17.90;99.90;;;18.43;72.25;102109.31;5052021;28;20139;-80
2023/10/05 04:41:12;;;;;;;11.88;4.40;;;18.00;99.90;;;18.38;72.64;102100.44;5053761;28;20053;-81
2023/10/05 04:43:41;;;;;;;16.45;5.30;;;18.00;99.90;;;18.45;72.89;102110.16;5055633;28;20398;-81
2023/10/05 04:46:10;;;;;;;17.27;5.82;;;18.00;99.90;;;18.36;73.44;102104.03;5055444;28;20041;-80
2023/10/05 04:48:39;;;;;;;12.57;4.85;;;18.00;99.90;;;18.27;74.09;102105.09;5054926;28;20045;-81
2023/10/05 04:51:07;;;;;;;17.70;5.18;;;17.90;99.90;;;18.20;74.78;102103.41;5054452;28;20467;-81
2023/10/05 04:53:38;;;;;;;10.23;4.53;;;17.80;99.90;;;18.23;74.59;102106.03;5054874;28;20041;-81
2023/10/05 04:56:22;;;;;;;;;;;17.80;99.90;;;18.27;74.72;102107.78;5054932;28;20091;-80
2023/10/05 04:59:18;;;;;;;11.10;4.72;;;17.90;99.90;;;18.08;75.37;102108.94;5054482;28;19927;-80
2023/10/05 05:01:56;;;;;;;15.98;5.03;;;17.80;99.90;;;18.21;75.22;102115.91;5054685;28;20051;-81
2023/10/05 05:04:41;;;;;;;10.35;4.80;;;17.80;99.90;;;18.31;74.81;102111.28;5054808;28;20084;-80
2023/10/05 05:07:11;;;;;;;12.80;4.63;;;17.90;99.90;;;18.24;75.18;102110.47;5055116;28;20045;-81
2023/10/05 05:09:42;;;;;;;13.25;4.88;;;17.90;99.90;;;18.25;74.54;102106.91;5054781;28;20041;-81
2023/10/05 05:12:16;;;;;;;11.95;4.38;;;17.90;99.90;;;18.26;74.43;102105.97;5055143;28;20544;-78
2023/10/05 05:14:46;;;;;;;14.55;4.68;;;17.90;99.90;;;18.39;74.24;102107.53;5039192;28;20048;-81
2023/10/05 05:17:18;;;;;;;12.43;4.68;;;18.00;99.90;;;18.39;74.20;102117.41;5054822;28;20045;-81
2023/10/05 05:19:48;;;;;;;16.92;5.45;;;18.00;99.90;;;18.36;73.97;102114.75;5053415;28;20459;-81
2023/10/05 05:22:18;;;;;;;9.13;4.30;;;18.00;99.90;;;18.33;74.08;102121.03;5054556;28;20118;-81
2023/10/05 05:24:47;;;;;;;12.75;4.85;;;18.00;99.90;;;18.29;74.21;102130.03;5054364;28;20083;-81
2023/10/05 05:27:22;;;;;;;9.25;4.38;;;17.90;99.90;;;18.25;74.66;102124.78;5054457;28;20123;-81
2023/10/05 05:29:52;;;;;;;12.68;4.70;;;17.90;99.90;;;18.17;74.37;102107.94;5053954;28;20044;-81
2023/10/05 05:32:22;;;;;;;17.60;4.70;;;17.90;99.90;;;18.15;74.55;102125.81;5053565;28;20064;-79
2023/10/05 05:34:51;;;;;;;9.55;4.45;;;17.80;99.90;;;17.98;75.21;102118.91;5052761;28;20061;-80
2023/10/05 05:37:28;;;;;;;11.82;3.95;;;17.70;99.90;;;18.09;74.84;102105.38;5053733;28;20045;-80
2023/10/05 05:40:01;;;;;;;13.13;4.97;;;17.80;99.90;;;18.14;75.20;102118.72;5054327;28;20037;-81
2023/10/05 05:42:33;;;;;;;11.07;4.50;;;17.80;99.90;;;18.20;75.07;102114.13;5054373;28;20045;-80
2023/10/05 05:45:07;;;;;;;12.48;4.82;;;17.80;99.90;;;18.30;74.80;102125.56;5054144;28;20060;-80
2023/10/05 05:47:35;;;;;;;9.32;4.40;;;17.90;99.90;;;18.23;75.32;102137.31;5053576;28;20453;-81
2023/10/05 05:50:07;;;;;;;16.15;4.78;;;17.80;99.90;;;18.29;74.64;102140.75;5052864;28;20041;-81
2023/10/05 05:52:36;;;;;;;12.48;4.70;;;17.90;99.90;;;18.31;74.55;102132.72;5053865;28;20049;-80
2023/10/05 05:55:10;;;;;;;9.20;4.88;;;17.90;99.90;;;18.33;74.83;102139.78;5054003;28;20128;-81
2023/10/05 05:57:40;;;;;;;12.70;4.50;;;17.90;99.90;;;18.41;74.77;102140.56;5053664;28;20118;-80
2023/10/05 06:00:14;;;;;;;18.35;4.90;;;18.00;99.90;;;18.38;75.25;102134.38;5053649;28;20045;-80
2023/10/05 06:02:43;;;;;;;12.93;4.60;;;18.00;99.90;;;18.45;75.09;102130.69;5053113;28;20045;-80
2023/10/05 06:05:12;;;;;;;13.70;4.78;;;18.00;99.90;;;18.29;75.44;102123.81;5053090;28;20045;-81
2023/10/05 06:07:43;;;;;;;10.55;4.03;;;17.90;99.90;;;18.26;75.75;102122.06;5053852;28;20080;-81
2023/10/05 06:10:13;;;;;;;;;;;17.90;99.90;;;18.30;75.77;102137.19;5054530;28;20124;-81
2023/10/05 06:12:48;;;;;;;9.95;4.53;;;17.90;99.90;;;18.42;75.64;102139.69;5054351;28;20322;-81
2023/10/05 06:15:16;;;;;;;15.63;4.78;;;18.00;99.90;;;18.39;75.77;102136.16;5054066;28;20037;-81
2023/10/05 06:17:44;;;;;;;13.65;4.68;;;18.00;99.90;;;18.51;75.64;102144.00;5053187;28;20544;-80
2023/10/05 06:20:14;;;;;;;16.75;4.88;;;18.10;99.90;;;18.47;75.14;102137.81;5053523;28;20048;-80
2023/10/05 06:22:44;;;;;;;9.90;4.30;;;18.10;99.90;;;18.38;75.41;102140.63;5053210;28;20099;-81
2023/10/05 06:25:15;;;;;;;11.43;4.60;;;18.00;99.90;;;18.32;75.49;102146.06;5053468;28;20076;-79
2023/10/05 06:27:47;;;;;;;10.80;5.22;;;18.00;99.90;;;18.32;75.76;102142.50;5053580;28;20120;-81
2023/10/05 06:30:15;;;;;;;12.52;4.65;;;18.00;99.90;;;18.27;75.93;102152.41;5053686;28;20045;-81
2023/10/05 06:32:44;;;;;;;10.82;4.32;;;17.90;99.90;;;18.22;76.43;102155.16;5053808;28;20084;-79
2023/10/05 06:35:13;;;;;;;12.77;4.68;;;17.80;99.90;;;18.29;76.55;102154.16;5053266;28;20127;-80
2023/10/05 06:37:42;;;;;;;11.52;4.63;;;17.90;99.90;;;18.23;76.73;102156.94;5053038;28;20041;-80
2023/10/05 06:40:13;;;;;;;9.18;4.72;;;17.90;99.90;;;18.17;76.99;102154.34;5053315;28;20041;-81
2023/10/05 06:42:44;;;;;;;11.77;4.90;;;17.90;99.90;;;18.34;76.69;102159.44;5053788;28;20045;-81
2023/10/05 06:45:15;;;;;;;10.75;4.53;;;18.00;99.90;;;18.32;77.06;102162.16;5053288;28;20048;-81
2023/10/05 06:47:44;;;;;;;17.23;4.97;;;18.00;99.90;;;18.44;76.72;102172.72;5053221;28;20491;-81
2023/10/05 06:50:13;;;;;;;12.00;4.75;;;18.10;99.90;;;18.42;77.21;102185.25;5053306;28;20040;-81
2023/10/05 06:52:43;;;;;;;9.90;4.70;;;18.00;99.90;;;18.48;77.11;102186.94;5052938;28;20041;-81
2023/10/05 06:55:13;;;;;;;15.05;5.15;;;18.10;99.90;;;18.26;77.60;102177.41;5036821;28;20119;-81
2023/10/05 06:57:43;;;;;;;11.68;4.55;;;18.00;99.90;;;18.48;77.20;102184.28;5053125;28;20044;-82
2023/10/05 07:00:20;;;;;;;10.65;4.70;;;18.10;99.90;;;18.43;77.32;102184.31;5052371;28;20040;-85
2023/10/05 07:02:50;;;;;;;10.25;4.47;;;18.10;99.90;;;18.47;77.09;102194.09;5052005;28;20048;-84
2023/10/05 07:05:20;;;;;;;13.20;4.95;;;18.10;99.90;;;18.07;76.57;102141.09;5064520;28;20430;-85
2023/10/05 07:07:48;;;;;;;8.63;4.23;;;18.20;99.90;;;18.46;77.13;102215.56;5041432;28;20434;-83
2023/10/05 07:10:17;;;;;;;11.20;4.90;;;18.10;99.90;;;18.37;76.37;102205.81;5052561;28;20052;-86
2023/10/05 07:12:46;;;;;;;10.27;4.55;;;18.10;99.90;;;18.43;76.61;102216.50;5052936;28;20080;-85
2023/10/05 07:15:19;;;;;;;11.52;4.75;;;18.10;99.90;;;18.46;76.30;102218.25;5052518;28;20057;-83
2023/10/05 07:17:48;;;;;;;14.50;4.97;;;18.10;99.90;;;18.52;76.73;102224.41;5053124;28;20091;-79
2023/10/05 07:20:18;;;;;;;11.10;5.00;;;18.10;99.90;;;18.57;76.56;102218.94;5052229;28;20049;-78
2023/10/05 07:22:48;;;;;;;12.90;4.97;;;18.20;99.90;;;18.64;76.31;102226.88;5036628;28;20041;-77
2023/10/05 07:25:18;;;;;;;10.50;5.30;;;18.30;99.90;;;18.69;76.21;102225.03;5052297;28;20041;-78
2023/10/05 07:27:47;;;;;;;14.05;4.68;;;18.30;99.90;;;18.82;75.86;102225.69;5052642;28;20083;-79
2023/10/05 07:30:18;;;;;;;13.10;4.55;;;18.40;99.90;;;18.85;75.81;102223.84;5052768;28;20114;-80
2023/10/05 07:32:46;;;;;;;15.47;4.73;;;18.50;99.90;;;18.82;76.26;102229.25;5052425;28;20132;-78
2023/10/05 07:35:36;;;;;;;11.88;4.88;;;18.50;99.90;;;18.93;76.38;102216.56;5052544;28;20142;-78
2023/10/05 07:38:06;;;;;;;11.02;4.85;;;18.50;99.90;;;18.92;76.45;102232.69;5052941;28;20110;-80
2023/10/05 07:40:37;;;;;;;11.77;4.47;;;18.50;99.90;;;18.83;76.51;102230.16;5037177;28;20064;-80
2023/10/05 07:43:06;;;;;;;11.15;4.75;;;18.50;99.90;;;18.92;77.07;102233.56;5052837;28;20041;-79
2023/10/05 07:45:37;;;;;;;15.13;5.40;;;18.50;99.90;;;18.91;77.03;102233.59;5052272;28;20049;-80
2023/10/05 07:48:07;;;;;;;16.35;5.22;;;18.50;99.90;;;18.95;77.33;102240.66;5052730;28;20048;-81
2023/10/05 07:50:37;;;;;;;16.52;5.25;;;18.60;99.90;;;18.96;77.10;102250.50;5052359;28;20075;-79
2023/10/05 07:53:06;;;;;;;10.15;4.70;;;18.60;99.90;;;19.00;77.18;102236.13;5052749;28;20038;-80
2023/10/05 07:55:35;;;;;;;12.07;5.00;;;18.70;99.90;;;19.16;77.20;102250.16;5052400;28;20041;-82
2023/10/05 07:58:05;;;;;;;17.23;5.95;;;18.80;99.90;;;19.24;76.76;102248.22;5052470;28;20409;-83
2023/10/05 08:00:35;;;;;;;;;;;18.90;99.90;;;19.23;76.56;102251.81;5053055;28;20107;-83
2023/10/05 08:03:05;;;;;;;15.07;5.82;;;18.90;99.90;;;19.22;77.19;102250.06;5051659;28;19943;-87
2023/10/05 08:05:34;;;;;;;21.42;6.03;;;18.80;99.90;;;19.27;77.13;102254.41;5051775;28;20144;-83
2023/10/05 08:08:04;;;;;;;16.33;5.40;;;18.80;99.90;;;19.37;76.69;102253.38;5051783;28;20041;-79
2023/10/05 08:10:33;;;;;;;21.17;5.50;;;19.00;99.90;;;19.45;76.74;102263.97;5052688;28;20052;-76
2023/10/05 08:13:03;;;;;;;12.43;6.13;;;19.00;99.90;;;19.44;76.54;102260.38;5051774;28;20099;-78
2023/10/05 08:15:32;;;;;;;15.13;5.68;;;19.10;99.90;;;19.31;77.38;102264.19;5055735;28;20175;-77
2023/10/05 08:18:02;;;;;;;15.57;4.95;;;19.00;99.90;;;19.40;77.05;102266.72;5040259;28;20043;-79
2023/10/05 08:20:31;;;;;;;12.90;5.25;;;19.00;99.90;;;19.49;77.00;102277.28;5055861;28;20051;-77
2023/10/05 08:22:59;;;;;;;14.75;5.60;;;19.10;99.90;;;19.64;76.77;102286.88;5055640;28;20048;-78
2023/10/05 08:25:28;;;;;;;13.77;5.93;;;19.20;99.90;;;19.69;76.65;102282.28;5055655;28;20395;-77
2023/10/05 08:27:56;;;;;;;14.63;5.50;;;19.30;99.90;;;19.65;77.53;102288.63;5055343;28;20045;-76
2023/10/05 08:30:25;;;;;;;14.00;5.25;;;19.30;99.90;;;19.60;77.25;102287.84;5055844;28;20056;-83
2023/10/05 08:32:56;;;;;;;16.73;5.60;;;19.20;99.90;;;19.67;77.16;102289.47;5055602;28;20542;-77
2023/10/05 08:35:40;;;;;;;18.85;5.10;;;19.20;99.90;;;19.66;76.96;102296.66;5055826;28;20063;-76
2023/10/05 08:38:15;;;;;;;12.20;5.20;;;19.30;99.90;;;19.70;77.15;102301.03;5055656;28;20068;-77
2023/10/05 08:40:48;;;;;;;12.38;5.25;;;19.30;99.90;;;19.71;77.00;102294.78;5055419;28;20056;-77
2023/10/05 08:43:17;;;;;;;11.15;4.90;;;19.30;99.90;;;19.71;76.62;102305.50;5054283;28;20179;-81
2023/10/05 08:45:51;;;;;;;16.60;4.57;;;19.30;99.90;;;19.78;76.34;102314.34;5054510;28;20037;-82
2023/10/05 08:48:28;;;;;;;17.13;5.35;;;19.40;99.90;;;19.73;76.30;102308.16;5055948;28;20049;-75
2023/10/05 08:51:06;;;;;;;11.98;4.78;;;19.40;99.90;;;19.74;76.56;102315.31;5054271;28;20052;-78
2023/10/05 08:53:41;;;;;;;15.80;5.28;;;19.40;99.90;;;19.73;75.86;102329.63;5055589;28;20392;-76
2023/10/05 08:56:13;;;;;;;14.65;5.15;;;19.40;99.90;;;19.62;76.29;102321.81;5055337;28;20769;-79
2023/10/05 08:58:44;;;;;;;13.20;4.82;;;19.30;99.90;;;19.56;76.07;102329.06;5055849;28;20049;-80
2023/10/05 09:01:33;;;;;;;17.50;5.38;;;19.20;99.90;;;19.54;76.71;102333.59;5054909;28;20045;-79
2023/10/05 09:04:11;;;;;;;12.65;4.82;;;19.10;99.90;;;19.34;76.47;102335.72;5055045;28;20405;-82
2023/10/05 09:06:52;;;;;;;15.00;5.18;;;19.00;99.90;;;19.48;76.86;102337.25;5054603;28;20562;-80
2023/10/05 09:09:37;;;;;;;13.88;5.18;;;19.00;99.90;;;19.43;77.46;102331.09;5039828;28;20413;-80
2023/10/05 09:12:32;;;;;;;13.55;5.00;;;19.10;99.90;;;19.51;77.41;102336.34;5054434;28;20036;-83
2023/10/05 09:15:08;;;;;;;13.75;4.82;;;19.20;99.90;;;19.59;76.43;102339.75;5054906;28;20049;-82
2023/10/05 09:17:36;;;;;;;14.18;5.18;;;19.20;99.90;;;19.53;76.60;102332.69;5053535;28;20053;-82
2023/10/05 09:20:22;;;;;;;17.85;5.85;;;19.20;99.90;;;19.49;76.95;102343.53;5053590;28;20037;-82
2023/10/05 09:22:53;;;;;;;10.15;5.38;;;19.20;99.90;;;19.67;76.84;102346.75;5054919;28;20128;-86
2023/10/05 09:25:27;;;;;;;17.15;5.40;;;19.20;99.90;;;19.65;76.63;102343.22;5053886;28;20567;-76
2023/10/05 09:28:07;;;;;;;13.18;4.70;;;19.30;99.90;;;19.52;76.89;102341.66;5054901;28;20471;-79
2023/10/05 09:30:49;;;;;;;9.13;4.63;;;19.20;99.90;;;19.58;76.38;102351.41;5054616;28;20044;-76
2023/10/05 09:33:19;;;;;;;14.10;5.28;;;19.20;99.90;;;19.54;76.23;102349.69;5054530;28;20049;-78
2023/10/05 09:35:47;;;;;;;15.33;5.20;;;19.20;99.90;;;19.66;76.21;102346.78;5054430;28;20049;-78
2023/10/05 09:38:21;;;;;;;11.65;4.45;;;19.20;99.90;;;19.72;76.11;102354.75;5054645;28;20045;-75
2023/10/05 09:40:53;;;;;;;13.32;4.93;;;19.30;99.90;;;19.71;76.59;102355.63;5038727;28;20497;-76
2023/10/05 09:43:24;;;;;;;10.20;4.50;;;19.40;99.90;;;19.76;76.09;102359.16;5054342;28;20041;-75
2023/10/05 09:45:53;;;;;;;10.40;4.82;;;19.40;99.90;;;19.76;76.14;102353.78;5054064;28;20073;-80
2023/10/05 09:48:24;;;;;;;13.05;5.28;;;19.40;99.90;;;19.76;76.00;102357.31;5053129;28;20064;-81
2023/10/05 09:50:53;;;;;;;16.10;4.78;;;19.50;99.90;;;19.82;75.77;102361.72;5053118;28;20406;-79
2023/10/05 09:53:23;;;;;;;19.80;5.35;;;19.50;99.90;;;19.88;75.30;102361.56;5054078;28;20052;-79
2023/10/05 09:55:53;;;;;;;14.37;4.77;;;19.50;99.90;;;19.95;74.83;102363.25;5054290;28;20048;-71
2023/10/05 09:58:22;;;;;;;;;;;19.60;99.90;;;20.05;74.80;102361.28;5054547;28;20333;-65
2023/10/05 10:00:55;;;;;;;10.88;4.57;;;19.70;99.90;;;20.12;74.62;102357.53;5053895;28;19921;-80
2023/10/05 10:03:24;;;;;;;13.95;4.47;;;19.70;99.90;;;20.18;74.68;102357.41;5054301;28;20053;-79
2023/10/05 10:06:09;;;;;;;17.08;5.03;;;19.70;99.90;;;20.28;74.78;102362.63;5053655;28;20102;-84
2023/10/05 10:08:51;;;;;;;11.85;4.80;;;19.90;99.90;;;20.35;74.23;102366.94;5039888;28;20048;-77
2023/10/05 10:11:20;;;;;;;11.88;5.18;;;20.00;99.90;;;20.36;72.55;102368.69;5053589;28;20045;-75
2023/10/05 10:13:59;;;;;;;13.05;5.15;;;20.00;99.90;;;20.30;71.97;102349.16;5052441;28;20056;-75
2023/10/05 10:16:29;;;;;;;13.75;5.00;;;20.00;99.90;;;20.51;71.96;102360.34;5053275;28;20056;-77
2023/10/05 10:19:04;;;;;;;15.05;5.10;;;20.10;99.90;;;20.52;72.63;102350.44;5053685;28;20040;-76
2023/10/05 10:21:41;;;;;;;8.63;4.63;;;20.10;99.90;;;20.56;71.99;102354.84;5053576;28;20044;-79
2023/10/05 10:24:17;;;;;;;10.02;4.95;;;20.20;99.90;;;20.58;72.25;102361.06;5037925;28;20135;-77
2023/10/05 10:26:53;;;;;;;11.70;4.53;;;20.20;99.90;;;20.55;71.73;102353.97;5053606;28;20372;-77
2023/10/05 10:29:22;;;;;;;13.93;4.65;;;20.20;99.90;;;20.56;71.89;102355.72;5053264;28;20398;-89